Temp: 9.2°C   Baro: 994.4mb
  Wind: 2.9mph   Dir: SW (223°)
  Rain: 0.0mm (0.0mm/hr)
  Solar: 0W/m2  Hum: 84%
 
Bath Spa Weather Station Historical Data
Daily Summary for September 17, 2020 Units:  Metric    English   Both
Daily Weekly Monthly Yearly Custom
  High: Low: Average:
Temperature: 22.2 °C 12.8 °C 16.9 °C
Dew Point: 14.2 °C 8.7 °C 12.2 °C
Humidity: 84% 53.2% 72%
Wind Speed: 19.5km/h 1.6km/h 6.9km/h
Wind Gust: 33.8km/h - -
Wind- - East
Pressure: 1028.7 hPa 1024.6 hPa -
Precipitation: 0 mm    
Historical Graphs
 
 
Tabular Data for September 17, 2020
Time Temperature Dew Point Pressure Wind Wind Speed Wind Gust Humidity Rainfall Rate (Hourly) solar
00:04 15.9 °C 13.7 °C 1028.3 hPa ENE 9 km/h 14.5 km/h 84% 0 mm 0 W/m2
00:09 15.9 °C 13.7 °C 1028.3 hPa ESE 4 km/h 20.9 km/h 84% 0 mm 0 W/m2
00:14 15.9 °C 13.7 °C 1028.3 hPa ENE 10.8 km/h 20.9 km/h 84% 0 mm 0 W/m2
00:19 15.9 °C 13.7 °C 1028.3 hPa ENE 9.3 km/h 17.7 km/h 84% 0 mm 0 W/m2
00:24 15.8 °C 13.7 °C 1028.3 hPa East 8.5 km/h 20.9 km/h 84% 0 mm 0 W/m2
00:29 15.8 °C 13.6 °C 1028.3 hPa East 7.6 km/h 17.7 km/h 84% 0 mm 0 W/m2
00:34 15.8 °C 13.6 °C 1028.3 hPa ENE 9.3 km/h 29 km/h 84% 0 mm 0 W/m2
00:39 15.8 °C 13.6 °C 1028.3 hPa ESE 7.4 km/h 22.5 km/h 84% 0 mm 0 W/m2
00:44 15.8 °C 13.6 °C 1028.3 hPa East 7.2 km/h 19.3 km/h 84% 0 mm 0 W/m2
00:49 15.8 °C 13.6 °C 1028.3 hPa East 7.2 km/h 19.3 km/h 84% 0 mm 0 W/m2
00:54 15.8 °C 13.7 °C 1028.3 hPa East 9.8 km/h 22.5 km/h 84% 0 mm 0 W/m2
00:59 15.8 °C 13.6 °C 1028.3 hPa East 7.1 km/h 22.5 km/h 84% 0 mm 0 W/m2
01:04 15.8 °C 13.7 °C 1028.3 hPa ESE 6.3 km/h 19.3 km/h 84% 0 mm 0 W/m2
01:09 15.8 °C 13.7 °C 1028.3 hPa East 4.3 km/h 25.7 km/h 84% 0 mm 0 W/m2
01:14 15.9 °C 13.7 °C 1028.3 hPa ENE 8.7 km/h 16.1 km/h 84% 0 mm 0 W/m2
01:19 15.8 °C 13.6 °C 1028.3 hPa NE 6 km/h 16.1 km/h 84% 0 mm 0 W/m2
01:24 15.8 °C 13.6 °C 1028.3 hPa ENE 4.3 km/h 11.3 km/h 84% 0 mm 0 W/m2
01:29 15.8 °C 13.6 °C 1028.3 hPa East 5.3 km/h 17.7 km/h 84% 0 mm 0 W/m2
01:34 15.8 °C 13.6 °C 1028.3 hPa NE 3.5 km/h 17.7 km/h 84% 0 mm 0 W/m2
01:39 15.8 °C 13.6 °C 1028.3 hPa East 5.1 km/h 14.5 km/h 84% 0 mm 0 W/m2
01:44 15.7 °C 13.5 °C 1028.3 hPa East 2.9 km/h 16.1 km/h 84% 0 mm 0 W/m2
01:49 15.7 °C 13.5 °C 1028.3 hPa NE 2.7 km/h 14.5 km/h 84% 0 mm 0 W/m2
01:54 15.6 °C 13.4 °C 1028.3 hPa ESE 6.4 km/h 19.3 km/h 84% 0 mm 0 W/m2
01:58 15.6 °C 13.3 °C 1028.3 hPa East 3.5 km/h 19.3 km/h 84% 0 mm 0 W/m2
02:04 15.4 °C 13.3 °C 1028.3 hPa ENE 7.2 km/h 16.1 km/h 84% 0 mm 0 W/m2
02:09 15.4 °C 13.2 °C 1028.3 hPa ENE 7.1 km/h 20.9 km/h 84% 0 mm 0 W/m2
02:14 15.4 °C 13.2 °C 1028.3 hPa East 7.1 km/h 16.1 km/h 84% 0 mm 0 W/m2
02:19 15.4 °C 13.2 °C 1028.3 hPa East 3.5 km/h 14.5 km/h 84% 0 mm 0 W/m2
02:24 15.4 °C 13.2 °C 1028.3 hPa NE 4.7 km/h 12.9 km/h 84% 0 mm 0 W/m2
02:29 15.3 °C 13.2 °C 1028.3 hPa ENE 8 km/h 19.3 km/h 84% 0 mm 0 W/m2
02:34 15.3 °C 13.1 °C 1028.3 hPa ENE 4.3 km/h 19.3 km/h 84% 0 mm 0 W/m2
02:38 15.3 °C 13.1 °C 1028.3 hPa East 4.8 km/h 12.9 km/h 84% 0 mm 0 W/m2
02:44 15.2 °C 13 °C 1028.3 hPa NE 8 km/h 22.5 km/h 84% 0 mm 0 W/m2
02:49 15.2 °C 13 °C 1028.3 hPa ENE 7.1 km/h 20.9 km/h 84% 0 mm 0 W/m2
02:54 15.2 °C 13 °C 1028.3 hPa ENE 6.4 km/h 25.7 km/h 84% 0 mm 0 W/m2
02:59 15.2 °C 13 °C 1028.3 hPa East 5.8 km/h 20.9 km/h 84% 0 mm 0 W/m2
03:04 15.2 °C 12.9 °C 1028.3 hPa East 7.1 km/h 25.7 km/h 84% 0 mm 0 W/m2
03:08 15.1 °C 12.9 °C 1028.3 hPa East 6.4 km/h 25.7 km/h 84% 0 mm 0 W/m2
03:14 15.1 °C 12.8 °C 1028 hPa ENE 8.7 km/h 27.4 km/h 84% 0 mm 0 W/m2
03:19 14.9 °C 12.6 °C 1028.3 hPa East 4.7 km/h 17.7 km/h 83.4% 0 mm 0 W/m2
03:24 14.9 °C 12.5 °C 1028.3 hPa ENE 7.7 km/h 14.5 km/h 83% 0 mm 0 W/m2
03:29 14.8 °C 12.4 °C 1028.3 hPa NE 7.2 km/h 19.3 km/h 83% 0 mm 0 W/m2
03:34 14.7 °C 12.3 °C 1028.3 hPa NE 10.9 km/h 30.6 km/h 83% 0 mm 0 W/m2
03:39 14.6 °C 12.2 °C 1028.3 hPa ENE 6.8 km/h 30.6 km/h 83% 0 mm 0 W/m2
03:44 14.6 °C 12.2 °C 1028.3 hPa ENE 11.6 km/h 25.7 km/h 83% 0 mm 0 W/m2
03:49 14.4 °C 12.1 °C 1028.3 hPa NE 9.7 km/h 25.7 km/h 83% 0 mm 0 W/m2
03:54 14.4 °C 12 °C 1028.3 hPa ENE 10 km/h 20.9 km/h 83% 0 mm 0 W/m2
03:59 14.3 °C 11.9 °C 1028.3 hPa East 10 km/h 22.5 km/h 83% 0 mm 0 W/m2
04:04 14.3 °C 11.9 °C 1028.3 hPa East 11.3 km/h 30.6 km/h 83% 0 mm 0 W/m2
04:09 14.3 °C 11.9 °C 1028.3 hPa ENE 8.4 km/h 16.1 km/h 83% 0 mm 0 W/m2
04:14 14.2 °C 11.8 °C 1028.3 hPa ENE 7.4 km/h 22.5 km/h 83% 0 mm 0 W/m2
04:19 14.2 °C 11.8 °C 1028.3 hPa ENE 4 km/h 20.9 km/h 83% 0 mm 0 W/m2
04:24 14.2 °C 11.8 °C 1028.3 hPa ENE 7.1 km/h 12.9 km/h 83% 0 mm 0 W/m2
04:29 14.1 °C 11.7 °C 1028.3 hPa East 7.6 km/h 16.1 km/h 83% 0 mm 0 W/m2
04:34 14.1 °C 11.8 °C 1028.3 hPa ENE 4 km/h 14.5 km/h 83.4% 0 mm 0 W/m2
04:39 14.1 °C 11.8 °C 1028.3 hPa ENE 5.6 km/h 19.3 km/h 83.6% 0 mm 0 W/m2
04:44 13.9 °C 11.7 °C 1028.3 hPa ENE 4 km/h 22.5 km/h 84% 0 mm 0 W/m2
04:49 13.9 °C 11.7 °C 1028.3 hPa East 5 km/h 17.7 km/h 84% 0 mm 0 W/m2
04:54 13.9 °C 11.7 °C 1028.3 hPa East 4.2 km/h 20.9 km/h 84% 0 mm 0 W/m2
04:59 13.8 °C 11.7 °C 1028.3 hPa NE 7.4 km/h 12.9 km/h 84% 0 mm 0 W/m2
05:04 13.8 °C 11.6 °C 1028.3 hPa ENE 3.7 km/h 22.5 km/h 84% 0 mm 0 W/m2
05:09 13.8 °C 11.6 °C 1028.3 hPa ENE 5.6 km/h 14.5 km/h 84% 0 mm 0 W/m2
05:14 13.8 °C 11.6 °C 1028.3 hPa East 9.5 km/h 22.5 km/h 84% 0 mm 0 W/m2
05:19 13.8 °C 11.6 °C 1028.3 hPa East 5.3 km/h 17.7 km/h 84% 0 mm 0 W/m2
05:24 13.7 °C 11.5 °C 1028.3 hPa ENE 8 km/h 24.1 km/h 84% 0 mm 0 W/m2
05:29 13.7 °C 11.5 °C 1028.3 hPa East 7.1 km/h 24.1 km/h 84% 0 mm 0 W/m2
05:34 13.7 °C 11.5 °C 1028 hPa East 10 km/h 22.5 km/h 84% 0 mm 0 W/m2
05:39 13.7 °C 11.5 °C 1028 hPa East 8.2 km/h 22.5 km/h 84% 0 mm 0 W/m2
05:44 13.7 °C 11.5 °C 1028 hPa ENE 9.2 km/h 29 km/h 83.8% 0 mm 0 W/m2
05:49 13.6 °C 11.3 °C 1028 hPa East 15.3 km/h 25.7 km/h 83% 0 mm 0 W/m2
05:54 13.6 °C 11.3 °C 1028.3 hPa ENE 7.7 km/h 20.9 km/h 83% 0 mm 0 W/m2
05:59 13.6 °C 11.1 °C 1028.3 hPa ENE 8.7 km/h 22.5 km/h 82% 0 mm 0 W/m2
06:04 13.5 °C 11 °C 1028.3 hPa East 7.7 km/h 17.7 km/h 82% 0 mm 0 W/m2
06:09 13.4 °C 10.9 °C 1028.3 hPa SE 3.9 km/h 14.5 km/h 82% 0 mm 0 W/m2
06:14 13.4 °C 10.9 °C 1028.3 hPa SE 7.9 km/h 16.1 km/h 82% 0 mm 0 W/m2
06:19 13.4 °C 10.9 °C 1028.3 hPa NE 4.3 km/h 20.9 km/h 82% 0 mm 0 W/m2
06:24 13.3 °C 10.8 °C 1028.3 hPa ESE 6.6 km/h 20.9 km/h 82% 0 mm 0 W/m2
06:29 13.2 °C 10.7 °C 1028.3 hPa ENE 8 km/h 20.9 km/h 82% 0 mm 0 W/m2
06:34 13.1 °C 10.6 °C 1028.3 hPa East 5.3 km/h 17.7 km/h 82% 0 mm 0 W/m2
06:39 13.1 °C 10.6 °C 1028.3 hPa East 7.2 km/h 16.1 km/h 82% 0 mm 0 W/m2
06:44 12.9 °C 10.4 °C 1028.3 hPa East 5.1 km/h 16.1 km/h 82% 0 mm 0 W/m2
06:49 12.9 °C 10.4 °C 1028.3 hPa SE 4 km/h 14.5 km/h 82% 0 mm 0 W/m2
06:54 12.8 °C 10.3 °C 1028.3 hPa ESE 7.7 km/h 17.7 km/h 82% 0 mm 5 W/m2
06:59 12.8 °C 10.3 °C 1028.3 hPa ESE 10.8 km/h 16.1 km/h 82% 0 mm 5 W/m2
07:04 12.8 °C 10.3 °C 1028.3 hPa East 6.8 km/h 20.9 km/h 82% 0 mm 9 W/m2
07:09 12.8 °C 10.4 °C 1028.3 hPa ENE 5.6 km/h 12.9 km/h 82.8% 0 mm 11 W/m2
07:14 12.8 °C 10.5 °C 1028.3 hPa East 7.2 km/h 17.7 km/h 83% 0 mm 14 W/m2
07:19 12.8 °C 10.5 °C 1028.3 hPa ENE 6.4 km/h 14.5 km/h 83% 0 mm 18 W/m2
07:24 12.8 °C 10.5 °C 1028.7 hPa East 6.1 km/h 16.1 km/h 83% 0 mm 21 W/m2
07:29 12.8 °C 10.5 °C 1028.7 hPa East 8.4 km/h 20.9 km/h 83% 0 mm 25 W/m2
07:34 12.8 °C 10.5 °C 1028.7 hPa ESE 8.4 km/h 24.1 km/h 83% 0 mm 28 W/m2
07:39 12.8 °C 10.5 °C 1028.7 hPa ESE 8.4 km/h 16.1 km/h 83% 0 mm 32 W/m2
07:44 12.8 °C 10.5 °C 1028.7 hPa East 5.1 km/h 17.7 km/h 83% 0 mm 35 W/m2
07:49 12.8 °C 10.6 °C 1028.7 hPa East 6.3 km/h 17.7 km/h 83% 0 mm 40 W/m2
07:54 12.9 °C 10.6 °C 1028.7 hPa East 9.2 km/h 24.1 km/h 83% 0 mm 44 W/m2
07:59 12.9 °C 10.6 °C 1028.7 hPa East 10 km/h 17.7 km/h 83% 0 mm 49 W/m2
08:04 13.1 °C 10.8 °C 1028.7 hPa ESE 9.3 km/h 25.7 km/h 83% 0 mm 54 W/m2
08:09 13.1 °C 10.8 °C 1028.7 hPa East 8.7 km/h 20.9 km/h 83% 0 mm 62 W/m2
08:14 13.1 °C 10.7 °C 1028.7 hPa East 10.9 km/h 20.9 km/h 82.6% 0 mm 70 W/m2
08:19 13.2 °C 10.7 °C 1028.7 hPa NE 11.3 km/h 20.9 km/h 82.2% 0 mm 79 W/m2
08:24 13.2 °C 10.7 °C 1028.7 hPa ESE 6.4 km/h 20.9 km/h 82% 0 mm 90 W/m2
08:29 13.3 °C 10.8 °C 1028.7 hPa East 6 km/h 20.9 km/h 82% 0 mm 102 W/m2
08:34 13.4 °C 10.9 °C 1028.7 hPa ENE 6.4 km/h 16.1 km/h 82% 0 mm 113 W/m2
08:39 13.5 °C 10.9 °C 1028.7 hPa ENE 8.7 km/h 16.1 km/h 81.4% 0 mm 127 W/m2
08:44 13.6 °C 10.9 °C 1028.7 hPa ENE 10.9 km/h 20.9 km/h 81% 0 mm 139 W/m2
08:49 13.7 °C 11.1 °C 1028.7 hPa ESE 8.2 km/h 16.1 km/h 81% 0 mm 151 W/m2
08:54 13.9 °C 11.1 °C 1028.7 hPa ESE 4.8 km/h 17.7 km/h 80.5% 0 mm 163 W/m2
08:59 14 °C 11.1 °C 1028.7 hPa East 6.3 km/h 24.1 km/h 80% 0 mm 176 W/m2
09:04 14.2 °C 11.2 °C 1028.7 hPa East 6 km/h 12.9 km/h 79.8% 0 mm 190 W/m2
09:09 14.3 °C 11.2 °C 1028.7 hPa ESE 8.4 km/h 25.7 km/h 79% 0 mm 206 W/m2
09:14 14.3 °C 11.2 °C 1028.7 hPa ENE 6.6 km/h 17.7 km/h 79% 0 mm 218 W/m2
09:19 14.4 °C 11.3 °C 1028.7 hPa East 9 km/h 29 km/h 79% 0 mm 229 W/m2
09:24 14.6 °C 11.4 °C 1028.7 hPa ESE 6.6 km/h 19.3 km/h 78.6% 0 mm 241 W/m2
09:29 14.8 °C 11.5 °C 1028.7 hPa East 8.4 km/h 20.9 km/h 78% 0 mm 260 W/m2
09:34 14.9 °C 11.4 °C 1028.7 hPa ENE 8.7 km/h 25.7 km/h 77.4% 0 mm 272 W/m2
09:39 15.1 °C 11.6 °C 1028.3 hPa East 6.3 km/h 24.1 km/h 77% 0 mm 283 W/m2
09:44 15.1 °C 11.6 °C 1028.7 hPa ENE 7.9 km/h 20.9 km/h 77% 0 mm 294 W/m2
09:49 15.2 °C 11.7 °C 1028.7 hPa ESE 4.8 km/h 19.3 km/h 76.8% 0 mm 309 W/m2
09:54 15.5 °C 11.9 °C 1028.7 hPa East 6.1 km/h 12.9 km/h 76.2% 0 mm 329 W/m2
09:59 15.8 °C 11.8 °C 1028.7 hPa ENE 7.1 km/h 22.5 km/h 74.4% 0 mm 343 W/m2
10:04 15.8 °C 11.8 °C 1028.7 hPa ESE 9.3 km/h 24.1 km/h 74.5% 0 mm 353 W/m2
10:09 15.7 °C 11.7 °C 1028.7 hPa East 11.1 km/h 24.1 km/h 74% 0 mm 366 W/m2
10:14 15.9 °C 11.9 °C 1028.3 hPa ESE 3.7 km/h 20.9 km/h 74.8% 0 mm 378 W/m2
10:19 16.5 °C 12.3 °C 1028.3 hPa East 6.6 km/h 16.1 km/h 73.8% 0 mm 390 W/m2
10:24 16.7 °C 12.1 °C 1028.3 hPa ESE 5.3 km/h 16.1 km/h 72.2% 0 mm 404 W/m2
10:29 16.7 °C 12 °C 1028.3 hPa ESE 10.1 km/h 24.1 km/h 71.8% 0 mm 408 W/m2
10:34 16.5 °C 11.8 °C 1028.3 hPa ESE 8.9 km/h 24.1 km/h 71.4% 0 mm 418 W/m2
10:39 16.7 °C 11.8 °C 1028.3 hPa ESE 14.5 km/h 22.5 km/h 71% 0 mm 427 W/m2
10:44 16.7 °C 11.9 °C 1028.3 hPa ENE 3.9 km/h 19.3 km/h 71% 0 mm 439 W/m2
10:49 17.1 °C 12 °C 1028.3 hPa East 11.3 km/h 16.1 km/h 69.8% 0 mm 446 W/m2
10:54 17.1 °C 11.8 °C 1028.3 hPa ENE 9.2 km/h 19.3 km/h 69.2% 0 mm 455 W/m2
10:59 17.1 °C 11.9 °C 1028.3 hPa ESE 10.3 km/h 20.9 km/h 69.4% 0 mm 462 W/m2
11:04 17.2 °C 11.9 °C 1028.3 hPa ESE 9.5 km/h 20.9 km/h 68.8% 0 mm 476 W/m2
11:09 17.4 °C 11.9 °C 1028.3 hPa ESE 9.7 km/h 20.9 km/h 68% 0 mm 483 W/m2
11:14 17.7 °C 12.1 °C 1028.3 hPa East 4.2 km/h 19.3 km/h 67.2% 0 mm 494 W/m2
11:19 18.2 °C 12.4 °C 1028.3 hPa ESE 3.9 km/h 16.1 km/h 67.2% 0 mm 506 W/m2
11:24 18.7 °C 12.7 °C 1028.3 hPa East 3.4 km/h 16.1 km/h 65.6% 0 mm 515 W/m2
11:29 18.6 °C 13.2 °C 1028.3 hPa ENE 10.3 km/h 17.7 km/h 68.4% 0 mm 522 W/m2
11:33 18.3 °C 13.2 °C 1028.3 hPa East 6.4 km/h 12.9 km/h 69.8% 0 mm 529 W/m2
11:39 18.4 °C 13.2 °C 1028 hPa ENE 7.9 km/h 17.7 km/h 69.4% 0 mm 538 W/m2
11:44 18.9 °C 13.3 °C 1028 hPa East 5.6 km/h 12.9 km/h 67.8% 0 mm 545 W/m2
11:49 19.3 °C 13.2 °C 1028 hPa ESE 5.1 km/h 11.3 km/h 65.6% 0 mm 552 W/m2
11:54 19.4 °C 12.9 °C 1028 hPa ESE 10.5 km/h 20.9 km/h 64% 0 mm 559 W/m2
11:59 19.1 °C 12.8 °C 1028 hPa East 10.9 km/h 22.5 km/h 65.2% 0 mm 563 W/m2
12:03 19 °C 12.8 °C 1028 hPa ENE 16.1 km/h 22.5 km/h 65.5% 0 mm 559 W/m2
12:09 18.8 °C 12.9 °C 1028 hPa ENE 12.2 km/h 20.9 km/h 66.2% 0 mm 564 W/m2
12:14 19.2 °C 13.1 °C 1028 hPa ESE 10 km/h 22.5 km/h 65.4% 0 mm 566 W/m2
12:19 19.2 °C 12.7 °C 1028 hPa ESE 8 km/h 25.7 km/h 63.8% 0 mm 575 W/m2
12:24 19.6 °C 13 °C 1028 hPa SE 11.6 km/h 17.7 km/h 63.8% 0 mm 578 W/m2
12:29 19.8 °C 13.5 °C 1028 hPa East 5.6 km/h 22.5 km/h 64.8% 0 mm 582 W/m2
12:34 19.8 °C 13.5 °C 1027.7 hPa ENE 10.1 km/h 22.5 km/h 65.3% 0 mm 587 W/m2
12:39 19.4 °C 13.6 °C 1027.7 hPa NE 7.6 km/h 22.5 km/h 66.8% 0 mm 587 W/m2
12:44 19.8 °C 13.9 °C 1027.7 hPa NE 4.7 km/h 14.5 km/h 66.6% 0 mm 589 W/m2
12:49 19.7 °C 13.7 °C 1027.7 hPa ENE 11.9 km/h 22.5 km/h 66.2% 0 mm 592 W/m2
12:54 19.7 °C 13.5 °C 1027.7 hPa ENE 10.9 km/h 24.1 km/h 65.5% 0 mm 591 W/m2
12:59 20 °C 13.6 °C 1027.7 hPa NE 3.7 km/h 17.7 km/h 64.6% 0 mm 589 W/m2
13:04 20.1 °C 13.8 °C 1027.7 hPa NNE 6.9 km/h 19.3 km/h 65.2% 0 mm 587 W/m2
13:09 20.3 °C 13.7 °C 1027.7 hPa ENE 8.4 km/h 17.7 km/h 63.8% 0 mm 591 W/m2
13:14 20.3 °C 13.6 °C 1027.7 hPa ENE 14.8 km/h 33.8 km/h 63% 0 mm 592 W/m2
13:19 19.8 °C 13 °C 1027.7 hPa ENE 8.7 km/h 33.8 km/h 62.8% 0 mm 596 W/m2
13:24 20.1 °C 13.2 °C 1027.7 hPa ENE 9 km/h 29 km/h 62.6% 0 mm 589 W/m2
13:29 20.2 °C 13.2 °C 1027.7 hPa ENE 9.5 km/h 33.8 km/h 62.2% 0 mm 591 W/m2
13:34 19.9 °C 12.8 °C 1027.7 hPa ENE 19.5 km/h 29 km/h 61.5% 0 mm 582 W/m2
13:39 20.2 °C 12.8 °C 1027.7 hPa ENE 14.8 km/h 24.1 km/h 60.8% 0 mm 585 W/m2
13:42 20.4 °C 12.7 °C 1027.3 hPa East 10.6 km/h 22.5 km/h 59.3% 0 mm 587 W/m2
13:49 20.9 °C 13.1 °C 1027.3 hPa ENE 10.8 km/h 29 km/h 59% 0 mm 587 W/m2
13:54 20.7 °C 13 °C 1027.3 hPa NE 16.1 km/h 25.7 km/h 59.8% 0 mm 582 W/m2
13:59 20.7 °C 12.9 °C 1027.3 hPa ENE 9.7 km/h 22.5 km/h 59.2% 0 mm 577 W/m2
14:04 21.3 °C 13.1 °C 1027.3 hPa East 9 km/h 20.9 km/h 57.6% 0 mm 575 W/m2
14:09 21.4 °C 13.1 °C 1027 hPa East 6.4 km/h 17.7 km/h 57% 0 mm 570 W/m2
14:14 21.6 °C 13.1 °C 1027 hPa East 10.9 km/h 19.3 km/h 56.6% 0 mm 566 W/m2
14:19 21.4 °C 13.1 °C 1027 hPa NE 8.4 km/h 22.5 km/h 57.3% 0 mm 564 W/m2
14:24 21.3 °C 13.2 °C 1027 hPa East 7.7 km/h 25.7 km/h 58.2% 0 mm 561 W/m2
14:29 21.6 °C 13.2 °C 1027 hPa ESE 6.9 km/h 25.7 km/h 57.2% 0 mm 555 W/m2
14:34 21.7 °C 12.5 °C 1026.6 hPa ESE 13.2 km/h 24.1 km/h 54.4% 0 mm 552 W/m2
14:39 21.6 °C 12.6 °C 1026.6 hPa East 9 km/h 24.1 km/h 55% 0 mm 550 W/m2
14:44 21.7 °C 12.9 °C 1026.6 hPa ESE 11.3 km/h 24.1 km/h 55.6% 0 mm 543 W/m2
14:49 21.7 °C 12.3 °C 1026.6 hPa East 13.2 km/h 25.7 km/h 53.2% 0 mm 540 W/m2
14:54 21.2 °C 12.9 °C 1026.6 hPa NE 9.5 km/h 20.9 km/h 57.2% 0 mm 534 W/m2
14:59 21.6 °C 13.2 °C 1026.6 hPa ESE 8 km/h 27.4 km/h 57% 0 mm 520 W/m2
15:04 21.7 °C 12.6 °C 1026.6 hPa East 10.6 km/h 27.4 km/h 54.8% 0 mm 508 W/m2
15:09 21.5 °C 12.5 °C 1026.3 hPa East 7.2 km/h 20.9 km/h 54.8% 0 mm 504 W/m2
15:14 21.6 °C 12.6 °C 1026.3 hPa East 10.6 km/h 22.5 km/h 55% 0 mm 499 W/m2
15:19 21.7 °C 12.7 °C 1026 hPa East 10.6 km/h 20.9 km/h 54.8% 0 mm 489 W/m2
15:24 21.3 °C 12.7 °C 1026 hPa ENE 9.3 km/h 25.7 km/h 56.4% 0 mm 483 W/m2
15:29 21.3 °C 12.8 °C 1026 hPa ESE 9.3 km/h 20.9 km/h 56.6% 0 mm 471 W/m2
15:34 21.6 °C 12.9 °C 1026 hPa NE 9.2 km/h 22.5 km/h 56.3% 0 mm 462 W/m2
15:39 21.6 °C 13.2 °C 1025.6 hPa East 6.4 km/h 22.5 km/h 56.8% 0 mm 459 W/m2
15:44 21.7 °C 13.3 °C 1025.6 hPa ENE 6.6 km/h 22.5 km/h 57% 0 mm 454 W/m2
15:49 22.1 °C 13.3 °C 1025.6 hPa ESE 7.1 km/h 24.1 km/h 55.8% 0 mm 445 W/m2
15:54 22.2 °C 13.4 °C 1025.6 hPa ENE 7.7 km/h 14.5 km/h 55.8% 0 mm 436 W/m2
15:59 22 °C 13.3 °C 1025.6 hPa SE 9 km/h 17.7 km/h 56.2% 0 mm 431 W/m2
16:04 21.8 °C 13.3 °C 1025.6 hPa East 9.3 km/h 19.3 km/h 56.8% 0 mm 418 W/m2
16:09 21.8 °C 13.4 °C 1025.6 hPa East 13.2 km/h 25.7 km/h 57% 0 mm 408 W/m2
16:14 21.6 °C 13.3 °C 1025.6 hPa ESE 11.6 km/h 20.9 km/h 57.5% 0 mm 397 W/m2
16:19 21.3 °C 13.4 °C 1025.3 hPa ENE 9.8 km/h 20.9 km/h 58.6% 0 mm 388 W/m2
16:24 21.6 °C 13.6 °C 1025.3 hPa ENE 5.6 km/h 19.3 km/h 59% 0 mm 378 W/m2
16:29 21.8 °C 13.7 °C 1025.3 hPa East 7.7 km/h 19.3 km/h 58.4% 0 mm 366 W/m2
16:34 21.7 °C 13.6 °C 1025.3 hPa NE 8.4 km/h 22.5 km/h 58.4% 0 mm 355 W/m2
16:39 21.6 °C 13.7 °C 1025.3 hPa NE 8.4 km/h 17.7 km/h 59% 0 mm 341 W/m2
16:44 21.4 °C 13.8 °C 1025.3 hPa NE 8 km/h 22.5 km/h 60% 0 mm 330 W/m2
16:49 21.6 °C 14 °C 1024.9 hPa East 6.8 km/h 16.1 km/h 60% 0 mm 316 W/m2
16:54 21.7 °C 13.8 °C 1024.9 hPa ENE 7.7 km/h 22.5 km/h 59.2% 0 mm 304 W/m2
16:59 21.6 °C 13.7 °C 1024.9 hPa NE 9.7 km/h 17.7 km/h 59% 0 mm 294 W/m2
17:04 21.7 °C 13.8 °C 1024.9 hPa ENE 7.7 km/h 19.3 km/h 59% 0 mm 285 W/m2
17:09 21.7 °C 13.6 °C 1024.9 hPa ESE 9 km/h 22.5 km/h 58.2% 0 mm 294 W/m2
17:14 21.7 °C 13.8 °C 1024.9 hPa NE 5.1 km/h 12.9 km/h 58.8% 0 mm 265 W/m2
17:19 21.7 °C 14 °C 1024.9 hPa NE 6.4 km/h 16.1 km/h 59.6% 0 mm 251 W/m2
17:24 21.7 °C 14.1 °C 1024.9 hPa ENE 6 km/h 16.1 km/h 60% 0 mm 241 W/m2
17:29 21.7 °C 14.2 °C 1024.9 hPa ENE 7.6 km/h 14.5 km/h 60% 0 mm 227 W/m2
17:34 21.8 °C 14.2 °C 1024.9 hPa East 6.6 km/h 14.5 km/h 60% 0 mm 211 W/m2
17:39 21.8 °C 14.2 °C 1024.9 hPa NE 6.1 km/h 17.7 km/h 60% 0 mm 195 W/m2
17:44 21.7 °C 13.8 °C 1024.6 hPa ENE 13.7 km/h 17.7 km/h 59% 0 mm 179 W/m2
17:49 21.6 °C 13.8 °C 1024.9 hPa ENE 3.5 km/h 16.1 km/h 59.6% 0 mm 169 W/m2
17:54 21.4 °C 13.8 °C 1024.9 hPa ENE 6.8 km/h 19.3 km/h 60% 0 mm 155 W/m2
17:59 21.3 °C 13.8 °C 1024.9 hPa NE 4.8 km/h 19.3 km/h 60.8% 0 mm 142 W/m2
18:04 21.1 °C 13.9 °C 1024.6 hPa ENE 7.1 km/h 17.7 km/h 61.6% 0 mm 128 W/m2
18:09 21 °C 14 °C 1024.6 hPa ENE 4.2 km/h 12.9 km/h 62.4% 0 mm 114 W/m2
18:14 21.1 °C 14 °C 1024.6 hPa ENE 5 km/h 12.9 km/h 62% 0 mm 102 W/m2
18:19 21.1 °C 14.2 °C 1024.9 hPa ENE 4.3 km/h 11.3 km/h 62.6% 0 mm 90 W/m2
18:24 21 °C 14.2 °C 1024.6 hPa NE 4.7 km/h 14.5 km/h 62.8% 0 mm 77 W/m2
18:29 20.7 °C 14 °C 1024.6 hPa NE 7.2 km/h 12.9 km/h 63.5% 0 mm 65 W/m2
18:34 20.5 °C 13.9 °C 1024.6 hPa NE 3.1 km/h 11.3 km/h 64% 0 mm 58 W/m2
18:39 20.3 °C 13.8 °C 1024.6 hPa ENE 3.4 km/h 11.3 km/h 64.4% 0 mm 47 W/m2
18:44 20.2 °C 13.9 °C 1024.6 hPa ENE 7.6 km/h 14.5 km/h 65% 0 mm 40 W/m2
18:49 19.9 °C 13.7 °C 1024.6 hPa NE 6 km/h 14.5 km/h 65% 0 mm 33 W/m2
18:54 19.8 °C 13.5 °C 1024.6 hPa ENE 4.3 km/h 12.9 km/h 65% 0 mm 26 W/m2
18:59 19.7 °C 13.6 °C 1024.6 hPa NE 3.7 km/h 11.3 km/h 66% 0 mm 21 W/m2
19:04 19.6 °C 13.5 °C 1024.6 hPa East 2.7 km/h 9.7 km/h 66% 0 mm 16 W/m2
19:09 19.5 °C 13.5 °C 1024.6 hPa ENE 5.1 km/h 9.7 km/h 66% 0 mm 12 W/m2
19:14 19.3 °C 13.3 °C 1024.6 hPa NE 3.2 km/h 8 km/h 66% 0 mm 9 W/m2
19:19 19.3 °C 13.5 °C 1024.6 hPa ENE 4.8 km/h 14.5 km/h 67% 0 mm 5 W/m2
19:24 19.2 °C 13.3 °C 1024.6 hPa ESE 4.8 km/h 14.5 km/h 67% 0 mm 0 W/m2
19:29 19 °C 13.2 °C 1024.6 hPa ENE 7.2 km/h 17.7 km/h 67% 0 mm 0 W/m2
19:34 18.8 °C 13 °C 1024.6 hPa East 4.3 km/h 12.9 km/h 67% 0 mm 0 W/m2
19:39 18.7 °C 13 °C 1024.6 hPa ENE 8.4 km/h 20.9 km/h 67.6% 0 mm 0 W/m2
19:44 18.6 °C 13.1 °C 1024.6 hPa East 6.9 km/h 17.7 km/h 68% 0 mm 0 W/m2
19:49 18.4 °C 12.8 °C 1024.9 hPa ESE 5.1 km/h 17.7 km/h 67.6% 0 mm 0 W/m2
19:54 18.3 °C 12.8 °C 1024.9 hPa ESE 5.6 km/h 14.5 km/h 68% 0 mm 0 W/m2
19:59 18.2 °C 12.7 °C 1024.9 hPa NE 4.8 km/h 19.3 km/h 68% 0 mm 0 W/m2
20:04 18.2 °C 12.7 °C 1024.9 hPa East 2.7 km/h 19.3 km/h 68.4% 0 mm 0 W/m2
20:09 18 °C 12.7 °C 1024.9 hPa ENE 4.3 km/h 14.5 km/h 69% 0 mm 0 W/m2
20:14 17.9 °C 12.7 °C 1024.9 hPa ENE 3.2 km/h 14.5 km/h 69.4% 0 mm 0 W/m2
20:19 17.7 °C 12.6 °C 1024.9 hPa ESE 5.3 km/h 12.9 km/h 70% 0 mm 0 W/m2
20:24 17.4 °C 12.5 °C 1024.9 hPa ESE 3.2 km/h 12.9 km/h 70.4% 0 mm 0 W/m2
20:29 17.3 °C 12.5 °C 1024.9 hPa East 6 km/h 12.9 km/h 71% 0 mm 0 W/m2
20:34 17.2 °C 12.3 °C 1025.3 hPa ESE 5.1 km/h 12.9 km/h 70.8% 0 mm 0 W/m2
20:39 17.1 °C 12.3 °C 1025.3 hPa ESE 5.1 km/h 11.3 km/h 71% 0 mm 0 W/m2
20:44 16.9 °C 12.1 °C 1025.3 hPa ESE 3.4 km/h 11.3 km/h 71% 0 mm 0 W/m2
20:49 16.8 °C 12 °C 1025.3 hPa ESE 2.6 km/h 6.4 km/h 71.2% 0 mm 0 W/m2
20:54 16.7 °C 11.9 °C 1025.3 hPa ESE 3.7 km/h 11.3 km/h 71.2% 0 mm 0 W/m2
20:59 16.6 °C 11.8 °C 1025.3 hPa SE 3.9 km/h 9.7 km/h 71% 0 mm 0 W/m2
21:04 16.4 °C 11.7 °C 1025.3 hPa ESE 2.6 km/h 9.7 km/h 71% 0 mm 0 W/m2
21:08 16.4 °C 11.6 °C 1025.6 hPa East 3.5 km/h 11.3 km/h 70.8% 0 mm 0 W/m2
21:14 16.3 °C 11.3 °C 1025.6 hPa ESE 3.2 km/h 12.9 km/h 70% 0 mm 0 W/m2
21:19 16.3 °C 11.3 °C 1025.3 hPa East 3.5 km/h 11.3 km/h 70% 0 mm 0 W/m2
21:24 16.3 °C 11.2 °C 1025.6 hPa East 5.8 km/h 11.3 km/h 69.2% 0 mm 0 W/m2
21:29 16.2 °C 11 °C 1025.6 hPa ENE 5.3 km/h 14.5 km/h 68.8% 0 mm 0 W/m2
21:34 16.2 °C 10.8 °C 1025.6 hPa ENE 5.8 km/h 14.5 km/h 68.2% 0 mm 0 W/m2
21:39 16.2 °C 10.8 °C 1025.6 hPa East 2.7 km/h 9.7 km/h 68% 0 mm 0 W/m2
21:44 16.1 °C 10.7 °C 1025.6 hPa ESE 2.1 km/h 6.4 km/h 68% 0 mm 0 W/m2
21:49 16.1 °C 10.7 °C 1025.6 hPa ESE 2.4 km/h 6.4 km/h 68% 0 mm 0 W/m2
21:54 15.9 °C 10.5 °C 1025.6 hPa East 2.7 km/h 11.3 km/h 68% 0 mm 0 W/m2
21:59 15.7 °C 10.4 °C 1025.6 hPa East 2.3 km/h 8 km/h 68.6% 0 mm 0 W/m2
22:04 15.5 °C 10.3 °C 1025.6 hPa East 3.4 km/h 11.3 km/h 69% 0 mm 0 W/m2
22:09 15.3 °C 10.2 °C 1025.6 hPa East 2.4 km/h 11.3 km/h 69% 0 mm 0 W/m2
22:14 15.2 °C 10.2 °C 1025.6 hPa East 2.4 km/h 8 km/h 70% 0 mm 0 W/m2
22:19 15.1 °C 10.1 °C 1025.6 hPa East 1.9 km/h 11.3 km/h 70% 0 mm 0 W/m2
22:24 14.9 °C 9.8 °C 1025.6 hPa ESE 2.7 km/h 9.7 km/h 69.2% 0 mm 0 W/m2
22:29 14.8 °C 9.9 °C 1025.6 hPa ESE 3.4 km/h 6.4 km/h 70% 0 mm 0 W/m2
22:34 14.7 °C 9.8 °C 1025.6 hPa ESE 4.5 km/h 8 km/h 70% 0 mm 0 W/m2
22:39 14.6 °C 9.7 °C 1025.6 hPa East 3.2 km/h 12.9 km/h 70% 0 mm 0 W/m2
22:44 14.4 °C 9.7 °C 1025.6 hPa ESE 2.6 km/h 9.7 km/h 71% 0 mm 0 W/m2
22:49 14.3 °C 9.7 °C 1025.6 hPa ESE 5.1 km/h 11.3 km/h 71% 0 mm 0 W/m2
22:54 14.2 °C 9.5 °C 1025.6 hPa ESE 4.5 km/h 11.3 km/h 71% 0 mm 0 W/m2
22:59 14.1 °C 9.4 °C 1025.6 hPa East 3.9 km/h 11.3 km/h 71% 0 mm 0 W/m2
23:04 13.9 °C 9.2 °C 1025.6 hPa East 3.4 km/h 11.3 km/h 71% 0 mm 0 W/m2
23:09 13.8 °C 9.2 °C 1025.6 hPa ESE 5.8 km/h 12.9 km/h 71% 0 mm 0 W/m2
23:14 13.8 °C 9.1 °C 1025.6 hPa ESE 3.9 km/h 11.3 km/h 71% 0 mm 0 W/m2
23:19 13.6 °C 8.9 °C 1025.6 hPa East 3.2 km/h 11.3 km/h 71% 0 mm 0 W/m2
23:24 13.4 °C 8.9 °C 1025.6 hPa ESE 1.6 km/h 11.3 km/h 72% 0 mm 0 W/m2
23:29 13.3 °C 8.8 °C 1025.6 hPa ESE 5.1 km/h 8 km/h 72% 0 mm 0 W/m2
23:34 13.3 °C 8.8 °C 1025.6 hPa East 3.9 km/h 14.5 km/h 72% 0 mm 0 W/m2
23:39 13.2 °C 8.7 °C 1025.6 hPa ESE 3.7 km/h 16.1 km/h 72% 0 mm 0 W/m2
23:44 13.1 °C 8.7 °C 1025.6 hPa ESE 4.3 km/h 12.9 km/h 72.2% 0 mm 0 W/m2
23:49 13 °C 8.8 °C 1025.6 hPa East 4.7 km/h 16.1 km/h 73% 0 mm 0 W/m2
23:54 12.9 °C 8.7 °C 1025.6 hPa East 4 km/h 12.9 km/h 73% 0 mm 0 W/m2
23:59 12.9 °C 8.7 °C 1025.6 hPa ESE 4.7 km/h 16.1 km/h 73% 0 mm 0 W/m2
Bath Spa Weather
Compliments of Weather Underground - 2 mb